createdAt,value
2023-03-04T00:00:31.845Z,1.20
2023-03-04T00:02:58.469Z,1.30
2023-03-04T00:05:24.972Z,1.20
2023-03-04T00:07:51.556Z,1.20
2023-03-04T00:10:18.183Z,1.20
2023-03-04T00:12:44.794Z,1.20
2023-03-04T00:15:11.440Z,1.20
2023-03-04T00:17:38.024Z,1.20
2023-03-04T00:20:04.726Z,1.20
2023-03-04T00:22:31.292Z,1.20
2023-03-04T00:24:57.855Z,1.20
2023-03-04T00:27:24.421Z,1.30
2023-03-04T00:29:50.916Z,1.20
2023-03-04T00:32:18.288Z,1.30
2023-03-04T00:34:44.841Z,1.40
2023-03-04T00:37:11.383Z,1.40
2023-03-04T00:39:37.868Z,1.40
2023-03-04T00:42:04.483Z,1.50
2023-03-04T00:44:31.028Z,1.50
2023-03-04T00:46:57.608Z,1.50
2023-03-04T00:49:24.150Z,1.50
2023-03-04T00:51:50.758Z,1.40
2023-03-04T00:54:17.357Z,1.40
2023-03-04T00:56:43.850Z,1.40
2023-03-04T00:59:10.416Z,1.50
2023-03-04T01:01:36.977Z,1.50
2023-03-04T01:04:03.717Z,1.50
2023-03-04T01:06:30.455Z,1.50
2023-03-04T01:08:57.021Z,1.50
2023-03-04T01:11:23.599Z,1.50
2023-03-04T01:13:50.216Z,1.60
2023-03-04T01:16:16.825Z,1.60
2023-03-04T01:18:43.390Z,1.70
2023-03-04T01:21:10.059Z,1.70
2023-03-04T01:23:36.584Z,1.60
2023-03-04T01:26:03.518Z,1.60
2023-03-04T01:28:30.119Z,1.50
2023-03-04T01:30:56.643Z,1.50
2023-03-04T01:33:23.242Z,1.40
2023-03-04T01:35:49.813Z,1.50
2023-03-04T01:38:16.389Z,1.50
2023-03-04T01:40:42.921Z,1.60
2023-03-04T01:43:12.853Z,1.60
2023-03-04T01:45:45.482Z,1.50
2023-03-04T01:48:14.626Z,1.60
2023-03-04T01:50:41.239Z,1.60
2023-03-04T01:53:15.209Z,1.60
2023-03-04T01:55:41.824Z,1.70
2023-03-04T01:58:09.859Z,1.60
2023-03-04T02:00:37.334Z,1.60
2023-03-04T02:03:08.525Z,1.60
2023-03-04T02:05:37.159Z,1.70
2023-03-04T02:08:04.029Z,1.70
2023-03-04T02:10:30.801Z,1.70
2023-03-04T02:12:58.488Z,1.70
2023-03-04T02:15:25.128Z,1.70
2023-03-04T02:17:51.688Z,1.70
2023-03-04T02:20:27.346Z,1.80
2023-03-04T02:23:00.630Z,1.70
2023-03-04T02:25:31.201Z,1.70
2023-03-04T02:27:57.750Z,1.70
2023-03-04T02:30:25.560Z,1.80
2023-03-04T02:32:52.825Z,1.80
2023-03-04T02:35:20.076Z,1.90
2023-03-04T02:37:46.690Z,2.00
2023-03-04T02:40:16.226Z,2.00
2023-03-04T02:42:43.646Z,2.00
2023-03-04T02:45:28.997Z,1.90
2023-03-04T02:47:55.590Z,1.90
2023-03-04T02:50:22.535Z,1.90
2023-03-04T02:52:49.067Z,2.00
2023-03-04T02:55:15.675Z,2.00
2023-03-04T02:57:42.243Z,2.10
2023-03-04T03:00:09.405Z,2.10
2023-03-04T03:02:35.994Z,2.20
2023-03-04T03:05:02.740Z,2.10
2023-03-04T03:07:29.202Z,2.00
2023-03-04T03:09:55.788Z,1.90
2023-03-04T03:12:22.290Z,1.80
2023-03-04T03:14:48.943Z,1.90
2023-03-04T03:17:15.493Z,2.00
2023-03-04T03:19:42.085Z,2.00
2023-03-04T03:22:08.662Z,2.10
2023-03-04T03:24:35.287Z,2.10
2023-03-04T03:27:01.899Z,2.00
2023-03-04T03:29:28.610Z,2.00
2023-03-04T03:31:56.830Z,2.00
2023-03-04T03:34:23.622Z,2.00
2023-03-04T03:36:50.216Z,1.90
2023-03-04T03:39:16.935Z,2.00
2023-03-04T03:41:43.509Z,2.00
2023-03-04T03:44:10.115Z,2.10
2023-03-04T03:46:36.700Z,2.10
2023-03-04T03:49:03.277Z,2.00
2023-03-04T03:51:29.903Z,2.00
2023-03-04T03:53:56.489Z,2.00
2023-03-04T03:56:23.054Z,2.00
2023-03-04T03:58:49.645Z,2.10
2023-03-04T04:01:16.213Z,2.00
2023-03-04T04:03:42.778Z,2.10
2023-03-04T04:06:09.391Z,2.10
2023-03-04T04:08:36.047Z,2.20
2023-03-04T04:11:02.622Z,2.20
2023-03-04T04:13:29.227Z,2.30
2023-03-04T04:15:55.751Z,2.30
2023-03-04T04:18:23.802Z,2.20
2023-03-04T04:20:51.508Z,2.20
2023-03-04T04:23:18.147Z,2.20
2023-03-04T04:25:47.726Z,2.10
2023-03-04T04:28:14.399Z,2.20
2023-03-04T04:30:41.215Z,2.10
2023-03-04T04:33:08.886Z,2.10
2023-03-04T04:35:36.613Z,2.00
2023-03-04T04:38:03.320Z,2.00
2023-03-04T04:40:29.851Z,2.00
2023-03-04T04:42:56.879Z,2.00
2023-03-04T04:45:24.740Z,2.00
2023-03-04T04:47:51.773Z,2.10
2023-03-04T04:50:18.368Z,2.20
2023-03-04T04:52:45.142Z,2.20
2023-03-04T04:55:11.711Z,2.20
2023-03-04T04:57:38.337Z,2.30
2023-03-04T05:00:06.038Z,2.30
2023-03-04T05:02:36.313Z,2.30
2023-03-04T05:05:03.987Z,2.30
2023-03-04T05:07:30.701Z,2.40
2023-03-04T05:09:57.185Z,2.40
2023-03-04T05:12:23.758Z,2.50
2023-03-04T05:14:50.292Z,2.50
2023-03-04T05:17:17.085Z,2.40
2023-03-04T05:19:43.618Z,2.40
2023-03-04T05:22:10.245Z,2.40
2023-03-04T05:24:36.920Z,2.50
2023-03-04T05:27:03.560Z,2.60
2023-03-04T05:29:30.079Z,2.60
2023-03-04T05:31:56.642Z,2.60
2023-03-04T05:34:29.991Z,2.70
2023-03-04T05:36:56.562Z,2.80
2023-03-04T05:39:23.085Z,2.90
2023-03-04T05:41:49.642Z,3.00
2023-03-04T05:44:16.223Z,3.00
2023-03-04T05:46:42.902Z,3.00
2023-03-04T05:49:09.476Z,3.00
2023-03-04T05:51:36.053Z,3.00
2023-03-04T05:54:02.555Z,3.10
2023-03-04T05:56:30.444Z,3.10
2023-03-04T05:58:57.983Z,3.20
2023-03-04T06:01:24.602Z,3.20
2023-03-04T06:03:51.144Z,3.30
2023-03-04T06:06:17.987Z,3.30
2023-03-04T06:08:44.677Z,3.40
2023-03-04T06:11:11.345Z,3.40
2023-03-04T06:13:38.181Z,3.40
2023-03-04T06:16:05.084Z,3.40
2023-03-04T06:18:31.686Z,3.50
2023-03-04T06:20:59.140Z,3.50
2023-03-04T06:23:25.940Z,3.50
2023-03-04T06:25:53.749Z,3.50
2023-03-04T06:28:20.410Z,3.50
2023-03-04T06:30:47.010Z,3.60
2023-03-04T06:33:13.528Z,3.50
2023-03-04T06:35:40.136Z,3.60
2023-03-04T06:38:06.719Z,3.60
2023-03-04T06:40:33.319Z,3.60
2023-03-04T06:43:00.324Z,3.60
2023-03-04T06:45:27.037Z,3.60
2023-03-04T06:47:53.534Z,3.50
2023-03-04T06:50:20.254Z,3.60
2023-03-04T06:52:47.158Z,3.60
2023-03-04T06:55:14.160Z,3.60
2023-03-04T06:57:40.713Z,3.60
2023-03-04T07:00:07.527Z,3.60
2023-03-04T07:02:34.162Z,3.70
2023-03-04T07:05:00.719Z,3.60
2023-03-04T07:07:27.310Z,3.70
2023-03-04T07:09:53.871Z,3.70
2023-03-04T07:12:20.483Z,3.80
2023-03-04T07:14:47.042Z,3.80
2023-03-04T07:17:13.626Z,3.80
2023-03-04T07:19:40.538Z,3.80
2023-03-04T07:22:07.216Z,3.90
2023-03-04T07:24:33.841Z,3.90
2023-03-04T07:27:00.325Z,3.90
2023-03-04T07:29:26.925Z,3.90
2023-03-04T07:31:53.905Z,4.00
2023-03-04T07:34:20.556Z,3.90
2023-03-04T07:36:47.144Z,3.90
2023-03-04T07:39:14.025Z,3.90
2023-03-04T07:41:41.090Z,3.90
2023-03-04T07:44:08.994Z,4.00
2023-03-04T07:46:35.680Z,4.10
2023-03-04T07:49:02.311Z,4.10
2023-03-04T07:51:29.179Z,4.10
2023-03-04T07:53:56.841Z,4.10
2023-03-04T07:56:24.732Z,4.10
2023-03-04T07:58:53.533Z,4.20
2023-03-04T08:01:21.781Z,4.20
2023-03-04T08:03:48.372Z,4.20
2023-03-04T08:06:16.684Z,4.20
2023-03-04T08:08:43.846Z,4.20
2023-03-04T08:11:12.438Z,4.20
2023-03-04T08:13:39.027Z,4.20
2023-03-04T08:16:05.969Z,4.30
2023-03-04T08:18:32.845Z,4.30
2023-03-04T08:20:59.566Z,4.30
2023-03-04T08:23:26.183Z,4.30
2023-03-04T08:25:52.869Z,4.30
2023-03-04T08:28:19.524Z,4.30
2023-03-04T08:30:52.213Z,4.40
2023-03-04T08:33:18.808Z,4.40
2023-03-04T08:35:45.354Z,4.40
2023-03-04T08:38:14.296Z,4.50
2023-03-04T08:40:40.952Z,4.50
2023-03-04T08:43:07.477Z,4.50
2023-03-04T08:45:34.033Z,4.50
2023-03-04T08:48:00.668Z,4.50
2023-03-04T08:50:27.490Z,4.60
2023-03-04T08:52:54.085Z,4.70
2023-03-04T08:55:20.710Z,4.70
2023-03-04T08:57:47.225Z,4.70
2023-03-04T09:00:14.012Z,4.70
2023-03-04T09:02:40.569Z,4.70
2023-03-04T09:07:37.565Z,4.70
2023-03-04T09:10:05.077Z,4.70
2023-03-04T09:12:31.698Z,4.80
2023-03-04T09:15:10.083Z,4.80
2023-03-04T09:17:37.828Z,4.80
2023-03-04T09:20:04.816Z,4.70
2023-03-04T09:22:31.799Z,4.80
2023-03-04T09:24:58.375Z,4.90
2023-03-04T09:27:25.056Z,4.90
2023-03-04T09:29:51.600Z,4.80
2023-03-04T09:32:18.284Z,4.90
2023-03-04T09:34:44.828Z,5.00
2023-03-04T09:37:11.421Z,4.90
2023-03-04T09:39:38.122Z,4.90
2023-03-04T09:42:06.154Z,5.00
2023-03-04T09:44:42.800Z,5.10
2023-03-04T09:47:14.136Z,5.10
2023-03-04T09:49:42.311Z,5.00
2023-03-04T09:52:21.067Z,4.90
2023-03-04T09:54:55.712Z,5.10
2023-03-04T09:57:33.224Z,5.20
2023-03-04T10:00:19.958Z,5.30
2023-03-04T10:03:05.670Z,5.30
2023-03-04T10:05:34.290Z,5.30
2023-03-04T10:08:05.917Z,5.30
2023-03-04T10:10:35.773Z,5.40
2023-03-04T10:13:03.059Z,5.50
2023-03-04T10:15:44.069Z,5.50
2023-03-04T10:18:20.565Z,5.80
2023-03-04T10:20:52.334Z,6.40
2023-03-04T10:23:21.246Z,7.20
2023-03-04T10:25:53.541Z,7.70
2023-03-04T10:28:27.478Z,8.20
2023-03-04T10:31:02.488Z,8.50
2023-03-04T10:33:30.599Z,8.20
2023-03-04T10:36:09.695Z,8.50
2023-03-04T10:38:37.474Z,8.50
2023-03-04T10:41:13.272Z,7.50
2023-03-04T10:43:40.453Z,7.30
2023-03-04T10:46:10.471Z,6.50
2023-03-04T10:48:40.284Z,6.50
2023-03-04T10:51:30.346Z,6.30
2023-03-04T10:53:59.298Z,6.30
2023-03-04T10:56:34.060Z,6.40
2023-03-04T10:59:19.361Z,6.60
2023-03-04T11:01:45.867Z,6.60
2023-03-04T11:04:18.487Z,6.90
2023-03-04T11:06:45.014Z,7.00
2023-03-04T11:09:25.496Z,7.20
2023-03-04T11:11:52.770Z,6.90
2023-03-04T11:14:24.106Z,7.00
2023-03-04T11:16:55.661Z,7.20
2023-03-04T11:19:24.227Z,7.00
2023-03-04T11:21:51.589Z,7.20
2023-03-04T11:24:29.066Z,7.10
2023-03-04T11:27:11.838Z,6.80
2023-03-04T11:29:42.373Z,6.70
2023-03-04T11:32:32.349Z,6.60
2023-03-04T11:35:01.529Z,6.60
2023-03-04T11:37:40.521Z,6.40
2023-03-04T11:40:16.183Z,6.60
2023-03-04T11:42:48.678Z,7.00
2023-03-04T11:45:29.565Z,7.00
2023-03-04T11:48:12.842Z,7.20
2023-03-04T11:50:48.720Z,7.50
2023-03-04T11:53:33.815Z,7.70
2023-03-04T11:56:19.372Z,7.50
2023-03-04T11:58:48.881Z,7.00
2023-03-04T12:01:18.235Z,6.90
2023-03-04T12:03:44.817Z,6.60
2023-03-04T12:06:30.393Z,6.60
2023-03-04T12:09:24.491Z,6.40
2023-03-04T12:12:06.156Z,6.40
2023-03-04T12:14:41.445Z,6.80
2023-03-04T12:17:20.351Z,7.20
2023-03-04T12:19:56.198Z,7.40
2023-03-04T12:22:25.604Z,7.40
2023-03-04T12:25:19.691Z,7.70
2023-03-04T12:28:05.308Z,7.50
2023-03-04T12:30:50.666Z,7.50
2023-03-04T12:33:23.348Z,7.60
2023-03-04T12:38:29.088Z,7.30
2023-03-04T12:41:08.678Z,7.20
2023-03-04T12:43:44.957Z,7.10
2023-03-04T12:46:11.671Z,7.20
2023-03-04T12:48:38.333Z,6.90
2023-03-04T12:51:14.485Z,6.70
2023-03-04T12:53:56.620Z,6.80
2023-03-04T12:56:49.673Z,6.90
2023-03-04T12:59:18.234Z,6.90
2023-03-04T13:01:49.122Z,7.10
2023-03-04T13:04:30.816Z,7.00
2023-03-04T13:07:06.938Z,6.90
2023-03-04T13:09:37.327Z,6.90
2023-03-04T13:12:05.594Z,6.80
2023-03-04T13:14:32.590Z,6.80
2023-03-04T13:17:01.658Z,7.00
2023-03-04T13:19:45.136Z,7.20
2023-03-04T13:22:27.080Z,7.20
2023-03-04T13:24:56.570Z,7.20
2023-03-04T13:27:41.704Z,7.20
2023-03-04T13:30:27.165Z,7.20
2023-03-04T13:32:53.749Z,7.20
2023-03-04T13:35:39.177Z,7.00
2023-03-04T13:38:20.888Z,6.90
2023-03-04T13:41:09.183Z,7.00
2023-03-04T13:43:54.477Z,6.80
2023-03-04T13:46:21.577Z,6.90
2023-03-04T13:48:51.329Z,6.90
2023-03-04T13:51:33.311Z,7.00
2023-03-04T13:53:59.909Z,7.10
2023-03-04T13:56:29.944Z,7.10
2023-03-04T13:59:05.666Z,7.20
2023-03-04T14:01:33.535Z,7.30
2023-03-04T14:04:00.695Z,7.20
2023-03-04T14:06:28.740Z,7.20
2023-03-04T14:08:56.062Z,7.20
2023-03-04T14:11:22.675Z,7.20
2023-03-04T14:13:49.241Z,7.10
2023-03-04T14:16:23.538Z,7.10
2023-03-04T14:19:00.992Z,7.10
2023-03-04T14:21:28.112Z,7.00
2023-03-04T14:24:02.073Z,7.10
2023-03-04T14:26:31.023Z,7.10
2023-03-04T14:28:59.467Z,7.00
2023-03-04T14:31:29.925Z,7.10
2023-03-04T14:34:01.781Z,6.90
2023-03-04T14:36:30.188Z,7.10
2023-03-04T14:38:58.869Z,7.10
2023-03-04T14:41:28.520Z,7.10
2023-03-04T14:44:04.372Z,7.10
2023-03-04T14:46:33.456Z,7.10
2023-03-04T14:49:00.138Z,7.00
2023-03-04T14:51:45.964Z,7.10
2023-03-04T14:54:44.695Z,7.00
2023-03-04T14:57:32.344Z,6.80
2023-03-04T15:00:14.290Z,6.80
2023-03-04T15:02:41.164Z,6.70
2023-03-04T15:05:16.886Z,6.50
2023-03-04T15:07:52.429Z,6.60
2023-03-04T15:10:22.061Z,6.50
2023-03-04T15:12:53.467Z,6.60
2023-03-04T15:15:39.854Z,6.60
2023-03-04T15:18:21.585Z,6.60
2023-03-04T15:20:57.348Z,6.60
2023-03-04T15:23:24.210Z,6.60
2023-03-04T15:25:51.804Z,6.50
2023-03-04T15:28:19.074Z,6.60
2023-03-04T15:30:45.680Z,6.60
2023-03-04T15:33:12.857Z,6.50
2023-03-04T15:35:39.970Z,6.60
2023-03-04T15:38:07.333Z,6.60
2023-03-04T15:40:43.003Z,6.60
2023-03-04T15:43:13.257Z,6.50
2023-03-04T15:45:41.230Z,6.50
2023-03-04T15:48:10.001Z,6.50
2023-03-04T15:50:38.834Z,6.60
2023-03-04T15:53:07.420Z,6.50
2023-03-04T15:55:35.184Z,6.60
2023-03-04T15:58:02.351Z,6.60
2023-03-04T16:00:28.949Z,6.60
2023-03-04T16:02:55.530Z,6.60
2023-03-04T16:05:22.190Z,6.60
2023-03-04T16:07:49.665Z,6.60
2023-03-04T16:10:25.197Z,6.60
2023-03-04T16:12:52.161Z,6.60
2023-03-04T16:15:20.564Z,6.60
2023-03-04T16:17:47.581Z,6.60
2023-03-04T16:20:16.742Z,6.60
2023-03-04T16:22:44.482Z,6.60
2023-03-04T16:25:14.491Z,6.60
2023-03-04T16:27:41.152Z,6.60
2023-03-04T16:30:12.985Z,6.50
2023-03-04T16:32:39.637Z,6.40
2023-03-04T16:35:09.211Z,6.40
2023-03-04T16:37:36.134Z,6.30
2023-03-04T16:40:04.522Z,6.30
2023-03-04T16:42:31.278Z,6.40
2023-03-04T16:44:57.922Z,6.30
2023-03-04T16:47:24.492Z,6.30
2023-03-04T16:49:51.146Z,6.30
2023-03-04T16:52:20.536Z,6.30
2023-03-04T16:54:47.038Z,6.30
2023-03-04T16:57:14.019Z,6.30
2023-03-04T16:59:40.608Z,6.30
2023-03-04T17:02:13.110Z,6.20
2023-03-04T17:04:39.712Z,6.10
2023-03-04T17:07:06.279Z,6.10
2023-03-04T17:09:32.821Z,6.10
2023-03-04T17:12:00.137Z,6.10
2023-03-04T17:14:26.740Z,6.10
2023-03-04T17:16:53.240Z,6.10
2023-03-04T17:19:19.790Z,6.10
2023-03-04T17:21:46.326Z,6.10
2023-03-04T17:24:12.925Z,6.10
2023-03-04T17:26:39.748Z,6.10
2023-03-04T17:29:06.454Z,6.10
2023-03-04T17:31:33.162Z,6.10
2023-03-04T17:33:59.778Z,6.00
2023-03-04T17:36:26.352Z,6.00
2023-03-04T17:38:52.900Z,6.00
2023-03-04T17:41:20.184Z,5.90
2023-03-04T17:43:48.017Z,5.90
2023-03-04T17:46:15.261Z,5.90
2023-03-04T17:48:41.916Z,5.90
2023-03-04T17:51:08.992Z,5.90
2023-03-04T17:53:35.802Z,5.90
2023-03-04T17:56:03.492Z,5.80
2023-03-04T17:58:30.839Z,5.80
2023-03-04T18:01:01.683Z,5.80
2023-03-04T18:03:28.284Z,5.70
2023-03-04T18:05:54.880Z,5.70
2023-03-04T18:08:24.019Z,5.70
2023-03-04T18:10:50.830Z,5.70
2023-03-04T18:13:17.454Z,5.60
2023-03-04T18:15:43.980Z,5.70
2023-03-04T18:18:10.542Z,5.60
2023-03-04T18:20:37.070Z,5.60
2023-03-04T18:23:03.661Z,5.60
2023-03-04T18:25:30.191Z,5.60
2023-03-04T18:27:56.857Z,5.70
2023-03-04T18:30:27.159Z,5.70
2023-03-04T18:32:54.766Z,5.70
2023-03-04T18:35:21.770Z,5.70
2023-03-04T18:37:48.870Z,5.80
2023-03-04T18:40:15.639Z,5.80
2023-03-04T18:42:44.180Z,5.80
2023-03-04T18:45:13.578Z,5.80
2023-03-04T18:47:41.372Z,5.80
2023-03-04T18:50:08.654Z,5.80
2023-03-04T18:52:35.996Z,5.80
2023-03-04T18:55:03.006Z,5.90
2023-03-04T18:57:29.633Z,5.80
2023-03-04T18:59:58.618Z,5.80
2023-03-04T19:02:25.144Z,5.80
2023-03-04T19:04:54.604Z,5.80
2023-03-04T19:07:21.230Z,5.90
2023-03-04T19:09:47.830Z,5.90
2023-03-04T19:12:14.343Z,5.90
2023-03-04T19:14:40.935Z,5.80
2023-03-04T19:17:07.514Z,5.90
2023-03-04T19:19:34.132Z,5.90
2023-03-04T19:22:00.743Z,5.90
2023-03-04T19:24:27.306Z,5.80
2023-03-04T19:26:53.920Z,5.90
2023-03-04T19:29:20.505Z,5.90
2023-03-04T19:31:47.127Z,5.90
2023-03-04T19:34:13.632Z,5.90
2023-03-04T19:36:40.272Z,5.90
2023-03-04T19:39:08.237Z,5.90
2023-03-04T19:41:34.922Z,5.90
2023-03-04T19:44:01.455Z,5.90
2023-03-04T19:46:28.404Z,5.90
2023-03-04T19:48:54.974Z,5.90
2023-03-04T19:51:23.015Z,5.80
2023-03-04T19:53:52.924Z,5.80
2023-03-04T19:56:19.568Z,5.80
2023-03-04T19:58:49.688Z,5.80
2023-03-04T20:01:28.278Z,5.80
2023-03-04T20:03:55.882Z,5.80
2023-03-04T20:06:23.859Z,5.80
2023-03-04T20:08:50.948Z,5.80
2023-03-04T20:11:17.517Z,5.80
2023-03-04T20:13:44.323Z,5.80
2023-03-04T20:16:11.855Z,5.80
2023-03-04T20:18:38.637Z,5.80
2023-03-04T20:21:05.575Z,5.80
2023-03-04T20:23:32.131Z,5.80
2023-03-04T20:25:58.715Z,5.80
2023-03-04T20:28:25.637Z,5.80
2023-03-04T20:30:53.409Z,5.80
2023-03-04T20:33:20.135Z,5.80
2023-03-04T20:35:46.654Z,5.80
2023-03-04T20:38:14.254Z,5.80
2023-03-04T20:40:41.523Z,5.80
2023-03-04T20:43:08.059Z,5.80
2023-03-04T20:45:36.198Z,5.80
2023-03-04T20:48:03.651Z,5.80
2023-03-04T20:50:30.243Z,5.90
2023-03-04T20:52:56.823Z,5.90
2023-03-04T20:55:23.999Z,5.90
2023-03-04T20:57:50.702Z,5.90
2023-03-04T21:00:17.385Z,5.90
2023-03-04T21:02:43.933Z,5.90
2023-03-04T21:05:10.824Z,5.90
2023-03-04T21:07:37.421Z,5.90
2023-03-04T21:10:04.517Z,5.90
2023-03-04T21:12:31.046Z,5.90
2023-03-04T21:14:57.791Z,5.90
2023-03-04T21:17:24.639Z,5.90
2023-03-04T21:19:51.261Z,5.90
2023-03-04T21:22:19.100Z,5.90
2023-03-04T21:24:46.386Z,5.90
2023-03-04T21:27:13.546Z,5.90
2023-03-04T21:29:40.143Z,5.90
2023-03-04T21:32:23.424Z,5.90
2023-03-04T21:34:51.983Z,5.90
2023-03-04T21:42:15.593Z,5.90
2023-03-04T21:44:50.706Z,5.90
2023-03-04T21:47:18.354Z,5.90
2023-03-04T21:49:44.929Z,5.80
2023-03-04T21:52:11.657Z,5.80
2023-03-04T21:54:38.208Z,5.80
2023-03-04T21:57:04.823Z,5.90
2023-03-04T21:59:31.454Z,5.90
2023-03-04T22:01:58.097Z,5.80
2023-03-04T22:04:24.640Z,5.80
2023-03-04T22:06:51.291Z,5.80
2023-03-04T22:09:17.797Z,5.70
2023-03-04T22:11:44.995Z,5.80
2023-03-04T22:14:11.731Z,5.80
2023-03-04T22:16:48.911Z,5.80
2023-03-04T22:19:19.464Z,5.80
2023-03-04T22:21:46.076Z,5.70
2023-03-04T22:24:12.628Z,5.80
2023-03-04T22:26:39.292Z,5.80
2023-03-04T22:29:05.926Z,5.80
2023-03-04T22:31:33.986Z,5.80
2023-03-04T22:34:01.767Z,5.80
2023-03-04T22:36:28.919Z,5.80
2023-03-04T22:38:55.509Z,5.80
2023-03-04T22:41:22.245Z,5.70
2023-03-04T22:43:49.340Z,5.70
2023-03-04T22:46:17.487Z,5.60
2023-03-04T22:48:44.038Z,5.60
2023-03-04T22:51:10.693Z,5.60
2023-03-04T22:53:37.757Z,5.50
2023-03-04T22:56:05.035Z,5.50
2023-03-04T22:58:31.622Z,5.50
2023-03-04T23:00:58.246Z,5.50
2023-03-04T23:03:24.910Z,5.40
2023-03-04T23:06:06.888Z,5.40
2023-03-04T23:08:37.608Z,5.40
2023-03-04T23:11:15.170Z,5.40
2023-03-04T23:13:41.918Z,5.40
2023-03-04T23:16:09.727Z,5.40
2023-03-04T23:18:36.967Z,5.30
2023-03-04T23:21:07.693Z,5.30
2023-03-04T23:23:34.451Z,5.30
2023-03-04T23:26:01.576Z,5.30
2023-03-04T23:28:28.261Z,5.20
2023-03-04T23:30:54.922Z,5.20
2023-03-04T23:33:21.541Z,5.20
2023-03-04T23:35:48.201Z,5.20
2023-03-04T23:38:14.710Z,5.20
2023-03-04T23:40:41.318Z,5.20
2023-03-04T23:43:07.836Z,5.20
2023-03-04T23:45:34.447Z,5.20
2023-03-04T23:48:01.001Z,5.20
2023-03-04T23:50:27.597Z,5.10
2023-03-04T23:52:54.132Z,5.10
2023-03-04T23:55:20.800Z,5.10
2023-03-04T23:57:47.603Z,5.10
